PIMOHWEATHER Station Historical Data
Daily Summary for June 09, 2020 Units:  Metric    English   Both
Daily Weekly Monthly Yearly
  High: Low: Average:
Temperature: 35.0 °C 25.0 °C 29.4 °C
Dew Point: 28.0 °C 24.0 °C 26 °C
Humidity: 98% 63% 82%
Wind Speed: 24km/h 0km/h 4.1km/h
Wind Gust: 32km/h - -
Wind- - South
Pressure: 1009.0 hPa 1006.0 hPa -
Precipitation: 25.20 mm    
 
 
Tabular Data for June 09, 2020
Time Temperature Dew Point Pressure Wind Wind Speed Wind Gust Humidity Rainfall Rate (Hourly) solar
00:04 30.0 °C 26.0 °C 1008.3 hPa NNE 1 km/h 4 km/h 79% 0.00 mm 0.00 W/m2
00:09 30.0 °C 26.0 °C 1008.2 hPa North 1 km/h 4 km/h 80% 0.00 mm 0.00 W/m2
00:14 29.0 °C 26.0 °C 1008.5 hPa NNE 2 km/h 4 km/h 80% 0.00 mm 0.00 W/m2
00:19 29.0 °C 26.0 °C 1008.1 hPa Calm     80% 0.00 mm 0.00 W/m2
00:24 29.0 °C 26.0 °C 1008.0 hPa Calm     80% 0.00 mm 0.00 W/m2
00:29 29.0 °C 26.0 °C 1008.0 hPa Calm     80% 0.00 mm 0.00 W/m2
00:34 29.0 °C 26.0 °C 1007.9 hPa Calm     80% 0.00 mm 0.00 W/m2
00:39 29.0 °C 26.0 °C 1007.7 hPa Calm     80% 0.00 mm 0.00 W/m2
00:44 29.0 °C 25.0 °C 1008.0 hPa Calm     79% 0.00 mm 0.00 W/m2
00:49 29.0 °C 25.0 °C 1007.8 hPa Calm     77% 0.00 mm 0.00 W/m2
00:54 29.0 °C 25.0 °C 1007.8 hPa Calm     77% 0.00 mm 0.00 W/m2
00:59 29.0 °C 25.0 °C 1007.7 hPa Calm     77% 0.00 mm 0.00 W/m2
01:04 30.0 °C 25.0 °C 1007.6 hPa Calm     75% 0.00 mm 0.00 W/m2
01:09 30.0 °C 25.0 °C 1007.7 hPa Calm     75% 0.00 mm 0.00 W/m2
01:14 29.0 °C 25.0 °C 1007.9 hPa Calm     76% 0.00 mm 0.00 W/m2
01:19 29.0 °C 25.0 °C 1007.9 hPa Calm     76% 0.00 mm 0.00 W/m2
01:24 29.0 °C 25.0 °C 1007.9 hPa NNW 4 km/h 4 km/h 79% 0.00 mm 0.00 W/m2
01:29 29.0 °C 25.0 °C 1007.8 hPa NW 8 km/h 12 km/h 81% 0.00 mm 0.00 W/m2
01:34 29.0 °C 25.0 °C 1008.0 hPa WNW 7 km/h 8 km/h 82% 0.00 mm 0.00 W/m2
01:39 29.0 °C 25.0 °C 1007.8 hPa North 1 km/h 4 km/h 82% 0.00 mm 0.00 W/m2
01:44 29.0 °C 25.0 °C 1007.8 hPa North 5 km/h 8 km/h 83% 0.00 mm 0.00 W/m2
01:49 29.0 °C 25.0 °C 1007.9 hPa NNW 3 km/h 4 km/h 83% 0.00 mm 0.00 W/m2
01:54 28.0 °C 25.0 °C 1007.8 hPa NW 3 km/h 4 km/h 84% 0.00 mm 0.00 W/m2
01:59 28.0 °C 25.0 °C 1007.9 hPa WNW 6 km/h 8 km/h 84% 0.00 mm 0.00 W/m2
02:04 28.0 °C 25.0 °C 1008.0 hPa NW 10 km/h 12 km/h 84% 0.00 mm 0.00 W/m2
02:09 28.0 °C 25.0 °C 1007.7 hPa NW 7 km/h 8 km/h 84% 0.00 mm 0.00 W/m2
02:14 28.0 °C 25.0 °C 1007.7 hPa NNW 5 km/h 8 km/h 84% 0.00 mm 0.00 W/m2
02:19 28.0 °C 25.0 °C 1007.7 hPa Calm     85% 0.00 mm 0.00 W/m2
02:24 28.0 °C 25.0 °C 1007.8 hPa WNW 8 km/h 8 km/h 85% 0.00 mm 0.00 W/m2
02:29 28.0 °C 25.0 °C 1007.9 hPa NNW 8 km/h 12 km/h 85% 0.00 mm 0.00 W/m2
02:34 28.0 °C 25.0 °C 1007.6 hPa NNW 10 km/h 12 km/h 86% 0.00 mm 0.00 W/m2
02:39 28.0 °C 25.0 °C 1007.6 hPa NNW 11 km/h 16 km/h 86% 0.00 mm 0.00 W/m2
02:44 28.0 °C 25.0 °C 1007.6 hPa North 11 km/h 12 km/h 86% 0.00 mm 0.00 W/m2
02:49 28.0 °C 25.0 °C 1007.7 hPa NNW 1 km/h 4 km/h 86% 0.00 mm 0.00 W/m2
02:54 28.0 °C 25.0 °C 1007.7 hPa Calm     86% 0.00 mm 0.00 W/m2
02:59 28.0 °C 25.0 °C 1007.7 hPa Calm     86% 0.00 mm 0.00 W/m2
03:04 28.0 °C 25.0 °C 1007.8 hPa Calm     86% 0.00 mm 0.00 W/m2
03:09 28.0 °C 25.0 °C 1007.7 hPa NNW 6 km/h 8 km/h 86% 0.00 mm 0.00 W/m2
03:14 27.0 °C 25.0 °C 1007.6 hPa North 9 km/h 12 km/h 86% 0.00 mm 0.00 W/m2
03:19 27.0 °C 25.0 °C 1007.6 hPa North 11 km/h 12 km/h 86% 0.00 mm 0.00 W/m2
03:24 27.0 °C 25.0 °C 1007.7 hPa Calm     86% 0.00 mm 0.00 W/m2
03:29 27.0 °C 25.0 °C 1007.6 hPa Calm     86% 0.00 mm 0.00 W/m2
03:34 27.0 °C 25.0 °C 1007.7 hPa Calm     86% 0.00 mm 0.00 W/m2
03:39 27.0 °C 25.0 °C 1007.7 hPa North 10 km/h 12 km/h 86% 0.00 mm 0.00 W/m2
03:44 27.0 °C 25.0 °C 1007.6 hPa NNW 10 km/h 12 km/h 86% 0.00 mm 0.00 W/m2
03:49 27.0 °C 25.0 °C 1007.6 hPa North 9 km/h 12 km/h 86% 0.00 mm 0.00 W/m2
03:54 27.0 °C 25.0 °C 1007.6 hPa North 10 km/h 16 km/h 85% 0.00 mm 0.00 W/m2
03:59 27.0 °C 25.0 °C 1007.6 hPa North 10 km/h 12 km/h 86% 0.00 mm 0.00 W/m2
04:04 27.0 °C 25.0 °C 1007.6 hPa NNE 9 km/h 16 km/h 86% 0.00 mm 0.00 W/m2
04:09 27.0 °C 25.0 °C 1007.6 hPa North 13 km/h 16 km/h 86% 0.00 mm 0.00 W/m2
04:14 27.0 °C 25.0 °C 1007.5 hPa North 13 km/h 20 km/h 86% 0.00 mm 0.00 W/m2
04:19 27.0 °C 24.0 °C 1007.6 hPa North 9 km/h 12 km/h 86% 0.00 mm 0.00 W/m2
04:24 27.0 °C 25.0 °C 1007.5 hPa North 8 km/h 12 km/h 86% 0.00 mm 0.00 W/m2
04:29 27.0 °C 25.0 °C 1007.6 hPa North 11 km/h 12 km/h 87% 0.00 mm 0.00 W/m2
04:34 27.0 °C 25.0 °C 1007.7 hPa North 8 km/h 8 km/h 87% 0.00 mm 0.00 W/m2
04:39 27.0 °C 25.0 °C 1007.7 hPa NNE 8 km/h 12 km/h 87% 0.00 mm 0.00 W/m2
04:44 27.0 °C 25.0 °C 1007.7 hPa North 13 km/h 16 km/h 88% 0.00 mm 0.00 W/m2
04:49 27.0 °C 25.0 °C 1007.8 hPa North 7 km/h 8 km/h 88% 0.00 mm 0.00 W/m2
04:54 27.0 °C 25.0 °C 1007.8 hPa North 12 km/h 12 km/h 88% 0.00 mm 0.00 W/m2
04:59 27.0 °C 25.0 °C 1007.9 hPa North 4 km/h 8 km/h 88% 0.00 mm 0.00 W/m2
05:04 27.0 °C 25.0 °C 1007.9 hPa NNE 1 km/h 4 km/h 88% 0.00 mm 0.00 W/m2
05:09 27.0 °C 25.0 °C 1007.7 hPa North 10 km/h 16 km/h 88% 0.00 mm 0.00 W/m2
05:14 27.0 °C 25.0 °C 1007.9 hPa North 12 km/h 16 km/h 88% 0.00 mm 0.00 W/m2
05:19 27.0 °C 25.0 °C 1007.8 hPa North 12 km/h 16 km/h 88% 0.00 mm 0.00 W/m2
05:24 27.0 °C 25.0 °C 1007.8 hPa NNE 8 km/h 12 km/h 88% 0.00 mm 0.15 W/m2
05:29 27.0 °C 25.0 °C 1007.6 hPa North 6 km/h 8 km/h 88% 0.00 mm 3.18 W/m2
05:34 27.0 °C 25.0 °C 1007.6 hPa NNE 9 km/h 12 km/h 88% 0.00 mm 7.36 W/m2
05:39 27.0 °C 25.0 °C 1007.7 hPa North 6 km/h 8 km/h 88% 0.00 mm 17.36 W/m2
05:44 27.0 °C 25.0 °C 1007.7 hPa NNE 8 km/h 12 km/h 88% 0.00 mm 17.77 W/m2
05:49 27.0 °C 24.0 °C 1007.5 hPa NNE 9 km/h 12 km/h 88% 0.00 mm 24.87 W/m2
05:54 27.0 °C 25.0 °C 1007.5 hPa North 6 km/h 8 km/h 88% 0.00 mm 41.16 W/m2
05:59 27.0 °C 25.0 °C 1007.7 hPa North 10 km/h 12 km/h 88% 0.00 mm 38.88 W/m2
06:04 27.0 °C 25.0 °C 1007.7 hPa North 8 km/h 8 km/h 87% 0.00 mm 42.13 W/m2
06:09 27.0 °C 25.0 °C 1007.5 hPa Calm     87% 0.00 mm 49.16 W/m2
06:14 27.0 °C 25.0 °C 1007.6 hPa NNE 5 km/h 8 km/h 87% 0.00 mm 55.94 W/m2
06:19 27.0 °C 25.0 °C 1007.6 hPa NNE 4 km/h 8 km/h 87% 0.00 mm 131.78 W/m2
06:24 27.0 °C 25.0 °C 1007.7 hPa Calm     88% 0.00 mm 150.81 W/m2
06:29 27.0 °C 25.0 °C 1007.6 hPa Calm     88% 0.00 mm 165.74 W/m2
06:34 28.0 °C 25.0 °C 1007.8 hPa Calm     87% 0.00 mm 185.38 W/m2
06:39 28.0 °C 25.0 °C 1007.8 hPa Calm     86% 0.00 mm 199.09 W/m2
06:44 29.0 °C 26.0 °C 1007.8 hPa Calm     84% 0.00 mm 209.36 W/m2
06:49 28.0 °C 25.0 °C 1008.0 hPa Calm     84% 0.00 mm 223.45 W/m2
06:54 29.0 °C 25.0 °C 1008.1 hPa Calm     83% 0.00 mm 228.20 W/m2
06:59 28.0 °C 25.0 °C 1008.0 hPa Calm     83% 0.00 mm 237.94 W/m2
07:04 28.0 °C 25.0 °C 1008.1 hPa Calm     83% 0.00 mm 254.43 W/m2
07:09 29.0 °C 25.0 °C 1007.9 hPa Calm     82% 0.00 mm 259.72 W/m2
07:14 29.0 °C 25.0 °C 1008.0 hPa Calm     81% 0.00 mm 277.21 W/m2
07:19 29.0 °C 26.0 °C 1008.0 hPa Calm     80% 0.00 mm 250.93 W/m2
07:24 29.0 °C 26.0 °C 1007.8 hPa Calm     80% 0.00 mm 268.06 W/m2
07:29 30.0 °C 26.0 °C 1007.8 hPa Calm     80% 0.00 mm 280.41 W/m2
07:34 30.0 °C 26.0 °C 1007.8 hPa Calm     79% 0.00 mm 289.86 W/m2
07:39 31.0 °C 26.0 °C 1007.8 hPa Calm     77% 0.00 mm 294.63 W/m2
07:44 31.0 °C 26.0 °C 1007.8 hPa Calm     75% 0.00 mm 314.79 W/m2
07:49 32.0 °C 26.0 °C 1007.5 hPa Calm     72% 0.00 mm 318.63 W/m2
07:54 32.0 °C 26.0 °C 1007.8 hPa Calm     71% 0.00 mm 336.71 W/m2
07:59 32.0 °C 25.0 °C 1007.8 hPa SE 8 km/h 12 km/h 70% 0.00 mm 347.14 W/m2
08:04 31.0 °C 25.0 °C 1007.8 hPa SE 10 km/h 12 km/h 71% 0.00 mm 347.97 W/m2
08:09 32.0 °C 26.0 °C 1007.7 hPa SSE 3 km/h 4 km/h 71% 0.00 mm 332.92 W/m2
08:14 32.0 °C 26.0 °C 1007.7 hPa SSE 4 km/h 4 km/h 69% 0.00 mm 351.03 W/m2
08:19 33.0 °C 26.0 °C 1007.6 hPa Calm     69% 0.00 mm 373.46 W/m2
08:24 33.0 °C 26.0 °C 1007.8 hPa SE 9 km/h 12 km/h 67% 0.00 mm 368.20 W/m2
08:29 33.0 °C 26.0 °C 1007.8 hPa East 4 km/h 4 km/h 67% 0.00 mm 333.90 W/m2
08:34 33.0 °C 26.0 °C 1007.7 hPa ESE 6 km/h 12 km/h 66% 0.00 mm 357.56 W/m2
08:39 33.0 °C 25.0 °C 1007.9 hPa SE 5 km/h 8 km/h 66% 0.00 mm 376.35 W/m2
08:44 33.0 °C 26.0 °C 1008.0 hPa SE 1 km/h 4 km/h 65% 0.00 mm 393.92 W/m2
08:49 34.0 °C 26.0 °C 1008.0 hPa SE 8 km/h 12 km/h 64% 0.00 mm 396.76 W/m2
08:54 34.0 °C 26.0 °C 1008.2 hPa ESE 9 km/h 12 km/h 63% 0.00 mm 399.74 W/m2
08:59 33.0 °C 25.0 °C 1008.2 hPa SSE 11 km/h 16 km/h 64% 0.00 mm 405.61 W/m2
09:04 34.0 °C 26.0 °C 1008.0 hPa SSE 8 km/h 12 km/h 63% 0.00 mm 403.83 W/m2
09:09 34.0 °C 27.0 °C 1008.2 hPa South 7 km/h 8 km/h 69% 0.00 mm 395.88 W/m2
09:14 33.0 °C 26.0 °C 1008.1 hPa SW 10 km/h 12 km/h 70% 0.00 mm 403.07 W/m2
09:19 33.0 °C 26.0 °C 1008.2 hPa NW 7 km/h 8 km/h 71% 0.00 mm 430.42 W/m2
09:24 33.0 °C 27.0 °C 1008.2 hPa South 5 km/h 8 km/h 69% 0.00 mm 424.77 W/m2
09:29 33.0 °C 27.0 °C 1008.1 hPa South 5 km/h 8 km/h 69% 0.00 mm 380.14 W/m2
09:34 33.0 °C 26.0 °C 1008.2 hPa South 8 km/h 12 km/h 71% 0.00 mm 252.35 W/m2
09:39 32.0 °C 26.0 °C 1008.1 hPa SSE 5 km/h 8 km/h 73% 0.00 mm 164.12 W/m2
09:44 32.0 °C 26.0 °C 1008.3 hPa WNW 12 km/h 16 km/h 73% 0.00 mm 405.49 W/m2
09:49 32.0 °C 26.0 °C 1008.3 hPa NW 5 km/h 8 km/h 73% 0.00 mm 259.81 W/m2
09:54 32.0 °C 26.0 °C 1008.3 hPa WNW 5 km/h 8 km/h 74% 0.00 mm 422.89 W/m2
09:59 32.0 °C 26.0 °C 1008.3 hPa West 6 km/h 8 km/h 74% 0.00 mm 399.50 W/m2
10:04 32.0 °C 27.0 °C 1008.6 hPa Calm   4 km/h 73% 0.00 mm 461.01 W/m2
10:09 33.0 °C 27.0 °C 1008.3 hPa WNW 5 km/h 12 km/h 72% 0.00 mm 480.78 W/m2
10:14 32.0 °C 26.0 °C 1008.3 hPa SSW 7 km/h 12 km/h 72% 0.00 mm 453.01 W/m2
10:19 32.0 °C 26.0 °C 1008.4 hPa SW 5 km/h 12 km/h 72% 0.00 mm 397.10 W/m2
10:24 32.0 °C 26.0 °C 1008.4 hPa West 7 km/h 12 km/h 71% 0.00 mm 198.30 W/m2
10:29 32.0 °C 26.0 °C 1008.4 hPa WSW 4 km/h 4 km/h 71% 0.00 mm 439.97 W/m2
10:34 32.0 °C 26.0 °C 1008.5 hPa SSW 10 km/h 12 km/h 72% 0.00 mm 443.83 W/m2
10:39 32.0 °C 26.0 °C 1008.4 hPa NW 10 km/h 12 km/h 72% 0.00 mm 360.69 W/m2
10:44 33.0 °C 27.0 °C 1008.5 hPa SSW 5 km/h 8 km/h 71% 0.00 mm 347.97 W/m2
10:49 33.0 °C 27.0 °C 1008.4 hPa NW 9 km/h 12 km/h 71% 0.00 mm 457.41 W/m2
10:54 33.0 °C 27.0 °C 1008.2 hPa SSW 6 km/h 8 km/h 71% 0.00 mm 490.93 W/m2
10:59 33.0 °C 27.0 °C 1008.3 hPa SW 10 km/h 12 km/h 71% 0.00 mm 493.38 W/m2
11:04 32.0 °C 27.0 °C 1008.4 hPa East 9 km/h 12 km/h 72% 0.00 mm 481.88 W/m2
11:09 32.0 °C 27.0 °C 1008.4 hPa NE 2 km/h 4 km/h 72% 0.00 mm 492.08 W/m2
11:14 34.0 °C 27.0 °C 1008.3 hPa South 4 km/h 4 km/h 71% 0.00 mm 574.09 W/m2
11:19 34.0 °C 27.0 °C 1008.3 hPa SSW 10 km/h 12 km/h 69% 0.00 mm 572.28 W/m2
11:24 33.0 °C 27.0 °C 1008.2 hPa WNW 18 km/h 24 km/h 71% 0.00 mm 560.05 W/m2
11:29 33.0 °C 27.0 °C 1008.2 hPa WNW 5 km/h 8 km/h 70% 0.00 mm 566.71 W/m2
11:34 34.0 °C 27.0 °C 1008.2 hPa South 8 km/h 8 km/h 69% 0.00 mm 560.71 W/m2
11:39 33.0 °C 27.0 °C 1008.2 hPa NW 8 km/h 12 km/h 69% 0.00 mm 449.26 W/m2
11:44 33.0 °C 27.0 °C 1008.2 hPa SSW 9 km/h 12 km/h 69% 0.00 mm 404.68 W/m2
11:49 33.0 °C 27.0 °C 1007.9 hPa SSW 5 km/h 12 km/h 70% 0.00 mm 575.02 W/m2
11:54 34.0 °C 27.0 °C 1007.8 hPa NW 5 km/h 8 km/h 70% 0.00 mm 580.99 W/m2
11:59 34.0 °C 27.0 °C 1007.9 hPa South 9 km/h 12 km/h 68% 0.00 mm 645.73 W/m2
12:04 35.0 °C 27.0 °C 1007.8 hPa SW 9 km/h 16 km/h 67% 0.00 mm 614.96 W/m2
12:09 34.0 °C 27.0 °C 1007.9 hPa South 6 km/h 12 km/h 69% 0.00 mm 509.97 W/m2
12:14 33.0 °C 27.0 °C 1007.8 hPa NW 6 km/h 8 km/h 70% 0.00 mm 560.17 W/m2
12:19 34.0 °C 27.0 °C 1008.0 hPa SSW 9 km/h 12 km/h 69% 0.00 mm 583.78 W/m2
12:24 34.0 °C 27.0 °C 1007.9 hPa South 5 km/h 8 km/h 69% 0.00 mm 578.23 W/m2
12:29 34.0 °C 27.0 °C 1007.9 hPa West 9 km/h 16 km/h 68% 0.00 mm 580.48 W/m2
12:34 34.0 °C 27.0 °C 1007.7 hPa West 11 km/h 16 km/h 70% 0.00 mm 527.80 W/m2
12:39 33.0 °C 27.0 °C 1007.8 hPa WNW 14 km/h 16 km/h 70% 0.00 mm 576.08 W/m2
12:44 34.0 °C 27.0 °C 1007.5 hPa SSW 6 km/h 12 km/h 70% 0.00 mm 589.70 W/m2
12:49 34.0 °C 27.0 °C 1007.6 hPa SSE 3 km/h 8 km/h 69% 0.00 mm 575.81 W/m2
12:54 34.0 °C 28.0 °C 1007.5 hPa SSW 5 km/h 8 km/h 68% 0.00 mm 613.14 W/m2
12:59 34.0 °C 28.0 °C 1007.5 hPa SSW 8 km/h 12 km/h 72% 1.80 mm 208.31 W/m2
13:04 33.0 °C 28.0 °C 1007.7 hPa West 5 km/h 8 km/h 79% 10.80 mm 144.65 W/m2
13:09 31.0 °C 27.0 °C 1007.3 hPa NW 14 km/h 16 km/h 85% 18.01 mm 503.63 W/m2
13:14 31.0 °C 28.0 °C 1007.3 hPa West 1 km/h 4 km/h 87% 16.21 mm 567.81 W/m2
13:19 31.0 °C 28.0 °C 1007.0 hPa WSW 3 km/h 4 km/h 86% 7.19 mm 579.40 W/m2
13:24 32.0 °C 28.0 °C 1007.0 hPa SSW 5 km/h 8 km/h 82% 0.00 mm 513.56 W/m2
13:29 32.0 °C 28.0 °C 1007.0 hPa West 7 km/h 12 km/h 78% 0.00 mm 521.29 W/m2
13:34 32.0 °C 28.0 °C 1006.9 hPa NNW 5 km/h 8 km/h 78% 0.00 mm 191.18 W/m2
13:39 32.0 °C 27.0 °C 1006.8 hPa NW 9 km/h 12 km/h 76% 0.00 mm 556.94 W/m2
13:44 33.0 °C 28.0 °C 1006.6 hPa NW 14 km/h 16 km/h 75% 0.00 mm 591.61 W/m2
13:49 34.0 °C 28.0 °C 1006.6 hPa WNW 10 km/h 16 km/h 72% 0.00 mm 599.69 W/m2
13:54 34.0 °C 28.0 °C 1006.5 hPa SW 2 km/h 4 km/h 71% 0.00 mm 545.86 W/m2
13:59 34.0 °C 28.0 °C 1006.4 hPa NW 9 km/h 12 km/h 71% 0.00 mm 378.94 W/m2
14:04 34.0 °C 28.0 °C 1006.3 hPa WSW 3 km/h 4 km/h 71% 0.00 mm 575.17 W/m2
14:09 34.0 °C 28.0 °C 1006.1 hPa SW 10 km/h 12 km/h 70% 0.00 mm 394.51 W/m2
14:14 34.0 °C 28.0 °C 1006.0 hPa SSE 2 km/h 4 km/h 71% 0.00 mm 204.25 W/m2
14:19 33.0 °C 28.0 °C 1006.1 hPa WNW 4 km/h 8 km/h 73% 0.00 mm 147.31 W/m2
14:24 33.0 °C 27.0 °C 1006.3 hPa South 5 km/h 12 km/h 74% 0.00 mm 103.05 W/m2
14:29 32.0 °C 27.0 °C 1006.1 hPa South 12 km/h 16 km/h 76% 0.00 mm 111.37 W/m2
14:34 32.0 °C 28.0 °C 1006.3 hPa SSW 5 km/h 8 km/h 79% 5.41 mm 126.34 W/m2
14:39 32.0 °C 28.0 °C 1006.2 hPa South 6 km/h 8 km/h 81% 8.99 mm 347.36 W/m2
14:44 31.0 °C 28.0 °C 1006.3 hPa SE 11 km/h 16 km/h 81% 8.99 mm 216.21 W/m2
14:49 31.0 °C 28.0 °C 1006.4 hPa SE 12 km/h 12 km/h 85% 3.61 mm 222.38 W/m2
14:54 30.0 °C 27.0 °C 1006.4 hPa SSE 14 km/h 16 km/h 86% 7.19 mm 319.78 W/m2
14:59 30.0 °C 27.0 °C 1006.3 hPa South 8 km/h 12 km/h 85% 7.19 mm 372.22 W/m2
15:04 31.0 °C 28.0 °C 1006.3 hPa South 5 km/h 8 km/h 85% 3.61 mm 401.11 W/m2
15:09 31.0 °C 28.0 °C 1006.2 hPa WNW 1 km/h 4 km/h 84% 0.00 mm 195.37 W/m2
15:14 30.0 °C 27.0 °C 1006.0 hPa South 2 km/h 4 km/h 84% 0.00 mm 104.23 W/m2
15:19 30.0 °C 27.0 °C 1006.1 hPa South 8 km/h 8 km/h 84% 0.00 mm 61.40 W/m2
15:24 30.0 °C 26.0 °C 1006.1 hPa SSW 4 km/h 8 km/h 81% 0.00 mm 57.90 W/m2
15:29 31.0 °C 27.0 °C 1006.1 hPa Calm     82% 1.80 mm 49.60 W/m2
15:34 30.0 °C 27.0 °C 1006.1 hPa North 10 km/h 12 km/h 83% 5.41 mm 49.31 W/m2
15:39 30.0 °C 26.0 °C 1006.3 hPa North 13 km/h 16 km/h 85% 12.60 mm 47.76 W/m2
15:44 29.0 °C 27.0 °C 1006.2 hPa North 11 km/h 16 km/h 88% 12.60 mm 48.43 W/m2
15:49 29.0 °C 26.0 °C 1006.1 hPa NNE 24 km/h 32 km/h 89% 8.99 mm 43.32 W/m2
15:54 28.0 °C 26.0 °C 1006.7 hPa NNE 22 km/h 28 km/h 91% 7.19 mm 34.24 W/m2
15:59 28.0 °C 26.0 °C 1007.3 hPa East 19 km/h 24 km/h 96% 23.39 mm 21.68 W/m2
16:04 27.0 °C 26.0 °C 1007.3 hPa SE 13 km/h 16 km/h 97% 32.41 mm 17.42 W/m2
16:09 26.0 °C 26.0 °C 1007.2 hPa ENE 11 km/h 12 km/h 97% 43.21 mm 14.06 W/m2
16:14 26.0 °C 26.0 °C 1007.0 hPa ENE 1 km/h 4 km/h 97% 50.39 mm 15.79 W/m2
16:19 26.0 °C 25.0 °C 1006.9 hPa Calm     97% 50.39 mm 19.82 W/m2
16:24 25.0 °C 25.0 °C 1006.5 hPa SSE 1 km/h 4 km/h 98% 32.41 mm 21.89 W/m2
16:29 25.0 °C 25.0 °C 1006.4 hPa Calm   4 km/h 97% 10.80 mm 22.56 W/m2
16:34 25.0 °C 25.0 °C 1006.4 hPa Calm     97% 3.61 mm 22.82 W/m2
16:39 25.0 °C 25.0 °C 1006.3 hPa NW 5 km/h 8 km/h 97% 1.80 mm 23.96 W/m2
16:44 26.0 °C 25.0 °C 1006.5 hPa Calm     97% 0.00 mm 24.90 W/m2
16:49 26.0 °C 25.0 °C 1006.8 hPa Calm     96% 0.00 mm 23.96 W/m2
16:54 26.0 °C 25.0 °C 1007.0 hPa NW 17 km/h 20 km/h 96% 0.00 mm 20.22 W/m2
16:59 26.0 °C 25.0 °C 1006.8 hPa NW 1 km/h 4 km/h 94% 0.00 mm 18.59 W/m2
17:04 26.0 °C 25.0 °C 1006.8 hPa Calm     95% 0.00 mm 21.83 W/m2
17:09 26.0 °C 25.0 °C 1006.7 hPa Calm     95% 0.00 mm 24.49 W/m2
17:14 26.0 °C 25.0 °C 1006.5 hPa Calm     95% 0.00 mm 26.74 W/m2
17:19 26.0 °C 25.0 °C 1006.4 hPa Calm     95% 0.00 mm 27.03 W/m2
17:24 26.0 °C 26.0 °C 1006.5 hPa Calm     95% 0.00 mm 26.42 W/m2
17:29 26.0 °C 25.0 °C 1006.6 hPa Calm     94% 0.00 mm 24.96 W/m2
17:34 27.0 °C 25.0 °C 1006.7 hPa Calm     94% 0.00 mm 21.98 W/m2
17:39 27.0 °C 26.0 °C 1006.6 hPa Calm     92% 0.00 mm 17.80 W/m2
17:44 27.0 °C 26.0 °C 1006.9 hPa Calm     91% 0.00 mm 13.34 W/m2
17:49 28.0 °C 26.0 °C 1006.9 hPa Calm     89% 0.00 mm 11.96 W/m2
17:54 28.0 °C 25.0 °C 1006.8 hPa Calm     88% 0.00 mm 11.24 W/m2
17:59 28.0 °C 26.0 °C 1006.8 hPa Calm     88% 0.00 mm 8.08 W/m2
18:04 28.0 °C 26.0 °C 1006.9 hPa Calm     88% 0.00 mm 6.47 W/m2
18:09 28.0 °C 26.0 °C 1007.1 hPa Calm     88% 0.00 mm 5.65 W/m2
18:14 28.0 °C 26.0 °C 1007.1 hPa Calm     89% 0.00 mm 4.71 W/m2
18:19 28.0 °C 26.0 °C 1007.1 hPa Calm     89% 0.00 mm 2.63 W/m2
18:24 28.0 °C 26.0 °C 1007.1 hPa Calm     89% 0.00 mm 0.62 W/m2
18:29 28.0 °C 26.0 °C 1007.1 hPa Calm     90% 0.00 mm 0.00 W/m2
18:34 28.0 °C 26.0 °C 1007.4 hPa Calm     89% 0.00 mm 0.00 W/m2
18:39 28.0 °C 26.0 °C 1007.4 hPa Calm     89% 0.00 mm 0.00 W/m2
18:44 28.0 °C 26.0 °C 1007.4 hPa Calm     89% 0.00 mm 0.00 W/m2
18:49 28.0 °C 26.0 °C 1007.5 hPa Calm     89% 0.00 mm 0.00 W/m2
18:54 28.0 °C 26.0 °C 1007.4 hPa Calm     89% 0.00 mm 0.00 W/m2
18:59 28.0 °C 26.0 °C 1007.4 hPa Calm     89% 0.00 mm 0.00 W/m2
19:04 28.0 °C 26.0 °C 1007.6 hPa Calm     88% 0.00 mm 0.00 W/m2
19:09 28.0 °C 26.0 °C 1007.8 hPa Calm     88% 0.00 mm 0.00 W/m2
19:14 28.0 °C 26.0 °C 1007.8 hPa Calm     88% 0.00 mm 0.00 W/m2
19:19 28.0 °C 26.0 °C 1007.7 hPa Calm     88% 0.00 mm 0.00 W/m2
19:24 28.0 °C 26.0 °C 1007.8 hPa Calm     89% 0.00 mm 0.00 W/m2
19:29 28.0 °C 26.0 °C 1007.8 hPa Calm     89% 0.00 mm 0.00 W/m2
19:34 28.0 °C 26.0 °C 1007.7 hPa Calm     89% 0.00 mm 0.00 W/m2
19:39 28.0 °C 26.0 °C 1007.7 hPa Calm     89% 0.00 mm 0.00 W/m2
19:44 28.0 °C 26.0 °C 1007.7 hPa Calm     89% 0.00 mm 0.00 W/m2
19:49 28.0 °C 26.0 °C 1007.6 hPa Calm     88% 0.00 mm 0.00 W/m2
19:54 28.0 °C 26.0 °C 1007.6 hPa Calm     88% 0.00 mm 0.00 W/m2
19:59 28.0 °C 26.0 °C 1007.7 hPa Calm     88% 0.00 mm 0.00 W/m2
20:04 28.0 °C 26.0 °C 1007.8 hPa Calm     88% 0.00 mm 0.00 W/m2
20:09 28.0 °C 26.0 °C 1007.7 hPa Calm     88% 0.00 mm 0.00 W/m2
20:14 28.0 °C 26.0 °C 1007.9 hPa Calm     89% 0.00 mm 0.00 W/m2
20:19 28.0 °C 26.0 °C 1007.8 hPa Calm     89% 0.00 mm 0.00 W/m2
20:24 28.0 °C 26.0 °C 1007.9 hPa Calm     89% 0.00 mm 0.00 W/m2
20:29 28.0 °C 26.0 °C 1007.9 hPa Calm     89% 0.00 mm 0.00 W/m2
20:34 28.0 °C 26.0 °C 1007.8 hPa Calm     88% 0.00 mm 0.00 W/m2
20:39 28.0 °C 26.0 °C 1007.7 hPa Calm     88% 0.00 mm 0.00 W/m2
20:44 28.0 °C 26.0 °C 1007.9 hPa Calm     88% 0.00 mm 0.00 W/m2
20:49 28.0 °C 26.0 °C 1007.9 hPa Calm     88% 0.00 mm 0.00 W/m2
20:54 28.0 °C 26.0 °C 1008.0 hPa Calm     87% 0.00 mm 0.00 W/m2
20:59 28.0 °C 26.0 °C 1008.1 hPa Calm     87% 0.00 mm 0.00 W/m2
21:04 28.0 °C 26.0 °C 1008.0 hPa Calm     87% 0.00 mm 0.00 W/m2
21:09 28.0 °C 26.0 °C 1008.0 hPa Calm     88% 0.00 mm 0.00 W/m2
21:14 28.0 °C 26.0 °C 1008.0 hPa Calm     88% 0.00 mm 0.00 W/m2
21:19 28.0 °C 26.0 °C 1008.1 hPa Calm     88% 0.00 mm 0.00 W/m2
21:24 28.0 °C 26.0 °C 1008.2 hPa Calm     88% 0.00 mm 0.00 W/m2
21:29 28.0 °C 26.0 °C 1008.2 hPa Calm     87% 0.00 mm 0.00 W/m2
21:34 28.0 °C 26.0 °C 1008.3 hPa Calm     86% 0.00 mm 0.00 W/m2
21:39 28.0 °C 26.0 °C 1008.3 hPa Calm     87% 0.00 mm 0.00 W/m2
21:44 28.0 °C 26.0 °C 1008.3 hPa Calm     86% 0.00 mm 0.00 W/m2
21:49 28.0 °C 26.0 °C 1008.2 hPa Calm     86% 0.00 mm 0.00 W/m2
21:54 29.0 °C 26.0 °C 1008.3 hPa Calm     87% 0.00 mm 0.00 W/m2
21:59 29.0 °C 26.0 °C 1008.4 hPa Calm     87% 0.00 mm 0.00 W/m2
22:04 29.0 °C 26.0 °C 1008.7 hPa Calm     88% 0.00 mm 0.00 W/m2
22:09 28.0 °C 26.0 °C 1008.6 hPa Calm     88% 0.00 mm 0.00 W/m2
22:14 28.0 °C 26.0 °C 1008.6 hPa Calm     88% 0.00 mm 0.00 W/m2
22:19 28.0 °C 26.0 °C 1008.5 hPa Calm     88% 0.00 mm 0.00 W/m2
22:24 28.0 °C 26.0 °C 1008.7 hPa Calm     88% 0.00 mm 0.00 W/m2
22:29 28.0 °C 26.0 °C 1008.7 hPa Calm     88% 0.00 mm 0.00 W/m2
22:34 28.0 °C 26.0 °C 1008.9 hPa Calm     88% 0.00 mm 0.00 W/m2
22:39 28.0 °C 26.0 °C 1008.9 hPa Calm     89% 0.00 mm 0.00 W/m2
22:44 28.0 °C 26.0 °C 1008.9 hPa Calm     89% 0.00 mm 0.00 W/m2
22:49 28.0 °C 26.0 °C 1008.8 hPa Calm     89% 0.00 mm 0.00 W/m2
22:54 28.0 °C 26.0 °C 1008.9 hPa Calm     89% 0.00 mm 0.00 W/m2
22:59 28.0 °C 26.0 °C 1008.9 hPa Calm     88% 0.00 mm 0.00 W/m2
23:04 28.0 °C 26.0 °C 1009.0 hPa Calm     89% 0.00 mm 0.00 W/m2
23:09 28.0 °C 26.0 °C 1009.0 hPa Calm     89% 0.00 mm 0.00 W/m2
23:14 28.0 °C 26.0 °C 1009.0 hPa Calm     88% 0.00 mm 0.00 W/m2
23:19 28.0 °C 26.0 °C 1009.0 hPa Calm     89% 0.00 mm 0.00 W/m2
23:24 28.0 °C 26.0 °C 1008.9 hPa Calm     89% 0.00 mm 0.00 W/m2
23:29 28.0 °C 26.0 °C 1009.0 hPa Calm     89% 0.00 mm 0.00 W/m2
23:34 28.0 °C 26.0 °C 1009.0 hPa Calm     88% 0.00 mm 0.00 W/m2
23:39 28.0 °C 26.0 °C 1008.8 hPa Calm     88% 0.00 mm 0.00 W/m2
23:44 28.0 °C 26.0 °C 1008.8 hPa Calm     88% 0.00 mm 0.00 W/m2
23:49 28.0 °C 26.0 °C 1008.8 hPa Calm     88% 0.00 mm 0.00 W/m2
23:54 28.0 °C 26.0 °C 1008.8 hPa Calm     87% 0.00 mm 0.00 W/m2
23:59 28.0 °C 26.0 °C 1008.8 hPa Calm     87% 0.00 mm 0.00 W/m2
PIMOHWEATHER Philippines
Compliments of Weather Underground - 2 mb